createdAt,value
2023-04-15T00:01:44.509Z,3.00
2023-04-15T00:04:11.388Z,1.60
2023-04-15T00:06:39.395Z,0.70
2023-04-15T00:09:07.006Z,1.00
2023-04-15T00:11:33.496Z,1.20
2023-04-15T00:14:02.180Z,2.40
2023-04-15T00:16:28.793Z,2.30
2023-04-15T00:18:56.244Z,2.70
2023-04-15T00:21:22.646Z,2.30
2023-04-15T00:23:52.068Z,3.20
2023-04-15T00:26:21.683Z,1.60
2023-04-15T00:28:48.942Z,1.30
2023-04-15T00:31:17.909Z,0.70
2023-04-15T00:33:44.855Z,0.60
2023-04-15T00:36:12.077Z,0.70
2023-04-15T00:38:44.470Z,0.80
2023-04-15T00:41:15.380Z,0.70
2023-04-15T00:43:43.918Z,0.70
2023-04-15T00:46:15.458Z,0.60
2023-04-15T00:48:44.590Z,0.50
2023-04-15T00:51:11.204Z,0.60
2023-04-15T00:53:39.482Z,0.60
2023-04-15T00:56:08.330Z,0.80
2023-04-15T00:58:36.696Z,0.50
2023-04-15T01:01:07.462Z,0.70
2023-04-15T01:03:34.813Z,0.60
2023-04-15T01:06:04.158Z,0.50
2023-04-15T01:08:31.180Z,0.60
2023-04-15T01:11:03.314Z,0.60
2023-04-15T01:13:30.623Z,1.00
2023-04-15T01:15:57.531Z,0.60
2023-04-15T01:18:24.813Z,0.60
2023-04-15T01:20:51.453Z,0.50
2023-04-15T01:23:19.380Z,0.60
2023-04-15T01:25:46.884Z,0.60
2023-04-15T01:28:14.528Z,0.50
2023-04-15T01:30:44.119Z,0.50
2023-04-15T01:33:10.652Z,0.60
2023-04-15T01:35:38.602Z,0.60
2023-04-15T01:38:10.818Z,0.50
2023-04-15T01:40:37.259Z,0.40
2023-04-15T01:43:04.601Z,0.90
2023-04-15T01:45:32.177Z,0.50
2023-04-15T01:47:58.580Z,0.60
2023-04-15T01:50:26.583Z,0.50
2023-04-15T01:52:53.038Z,0.50
2023-04-15T01:55:20.920Z,0.50
2023-04-15T01:57:47.318Z,0.60
2023-04-15T02:00:14.490Z,0.40
2023-04-15T02:02:41.120Z,0.40
2023-04-15T02:05:11.635Z,0.60
2023-04-15T02:07:39.093Z,0.60
2023-04-15T02:10:05.980Z,0.50
2023-04-15T02:12:35.429Z,0.50
2023-04-15T02:15:02.008Z,0.70
2023-04-15T02:17:28.425Z,0.60
2023-04-15T02:20:01.041Z,1.10
2023-04-15T02:22:31.387Z,0.60
2023-04-15T02:24:57.885Z,0.60
2023-04-15T02:27:24.545Z,0.50
2023-04-15T02:29:52.753Z,0.40
2023-04-15T02:32:21.565Z,0.50
2023-04-15T02:34:48.313Z,0.50
2023-04-15T02:37:15.445Z,0.50
2023-04-15T02:39:44.057Z,0.40
2023-04-15T02:42:12.247Z,0.40
2023-04-15T02:44:38.780Z,0.40
2023-04-15T02:47:06.408Z,0.80
2023-04-15T02:49:33.163Z,0.60
2023-04-15T02:52:00.108Z,0.40
2023-04-15T02:54:30.769Z,0.50
2023-04-15T02:56:57.572Z,0.60
2023-04-15T02:59:24.780Z,0.50
2023-04-15T03:01:51.401Z,0.50
2023-04-15T03:04:19.814Z,1.20
2023-04-15T03:06:47.108Z,0.50
2023-04-15T03:09:13.886Z,0.50
2023-04-15T03:11:41.459Z,0.50
2023-04-15T03:14:09.065Z,0.50
2023-04-15T03:16:35.804Z,0.50
2023-04-15T03:19:02.906Z,0.60
2023-04-15T03:21:30.779Z,0.60
2023-04-15T03:23:57.717Z,0.40
2023-04-15T03:26:29.955Z,0.50
2023-04-15T03:28:57.955Z,0.60
2023-04-15T03:31:26.951Z,0.50
2023-04-15T03:33:56.510Z,0.50
2023-04-15T03:36:23.384Z,0.60
2023-04-15T03:38:50.477Z,1.80
2023-04-15T03:41:19.927Z,0.50
2023-04-15T03:43:48.660Z,0.40
2023-04-15T03:46:15.488Z,0.40
2023-04-15T03:48:42.375Z,0.60
2023-04-15T03:51:08.833Z,0.50
2023-04-15T03:53:36.548Z,0.60
2023-04-15T03:56:03.706Z,0.50
2023-04-15T03:58:33.402Z,0.50
2023-04-15T04:01:05.013Z,0.70
2023-04-15T04:03:31.655Z,0.50
2023-04-15T04:06:02.180Z,0.60
2023-04-15T04:08:28.879Z,0.40
2023-04-15T04:10:55.827Z,0.40
2023-04-15T04:15:57.829Z,0.50
2023-04-15T04:18:25.155Z,0.70
2023-04-15T04:20:54.132Z,0.50
2023-04-15T04:23:20.692Z,0.50
2023-04-15T04:25:48.304Z,0.50
2023-04-15T04:28:14.861Z,0.60
2023-04-15T04:30:43.422Z,0.60
2023-04-15T04:33:10.511Z,0.50
2023-04-15T04:35:44.719Z,0.50
2023-04-15T04:38:14.343Z,0.40
2023-04-15T04:40:40.979Z,0.40
2023-04-15T04:43:07.641Z,0.50
2023-04-15T04:45:34.713Z,0.50
2023-04-15T04:48:02.115Z,0.60
2023-04-15T04:50:30.498Z,0.40
2023-04-15T04:53:05.485Z,0.40
2023-04-15T04:55:34.042Z,1.20
2023-04-15T04:58:02.156Z,0.80
2023-04-15T05:00:30.558Z,0.40
2023-04-15T05:02:58.641Z,0.50
2023-04-15T05:05:25.572Z,0.70
2023-04-15T05:07:52.982Z,0.40
2023-04-15T05:10:21.790Z,0.30
2023-04-15T05:12:48.293Z,1.80
2023-04-15T05:15:14.968Z,0.50
2023-04-15T05:17:42.787Z,0.50
2023-04-15T05:20:13.798Z,0.70
2023-04-15T05:22:41.131Z,0.60
2023-04-15T05:25:08.161Z,0.60
2023-04-15T05:27:37.491Z,0.60
2023-04-15T05:30:07.522Z,0.60
2023-04-15T05:32:33.989Z,0.50
2023-04-15T05:35:02.872Z,0.60
2023-04-15T05:37:29.456Z,0.50
2023-04-15T05:39:56.502Z,0.50
2023-04-15T05:42:24.530Z,0.60
2023-04-15T05:44:51.345Z,0.60
2023-04-15T05:47:18.041Z,0.60
2023-04-15T05:49:46.051Z,0.50
2023-04-15T05:52:12.534Z,0.50
2023-04-15T05:54:39.076Z,0.50
2023-04-15T05:57:06.277Z,0.60
2023-04-15T05:59:33.630Z,0.60
2023-04-15T06:02:01.112Z,0.60
2023-04-15T06:04:28.145Z,0.60
2023-04-15T06:06:54.812Z,0.60
2023-04-15T06:09:21.758Z,0.80
2023-04-15T06:11:49.055Z,0.90
2023-04-15T06:14:15.551Z,0.70
2023-04-15T06:16:41.997Z,0.70
2023-04-15T06:19:10.529Z,0.50
2023-04-15T06:21:38.292Z,0.60
2023-04-15T06:24:08.083Z,0.40
2023-04-15T06:26:36.002Z,0.50
2023-04-15T06:29:02.985Z,0.40
2023-04-15T06:31:31.324Z,0.50
2023-04-15T06:34:00.229Z,0.60
2023-04-15T06:36:27.420Z,1.10
2023-04-15T06:38:55.445Z,0.60
2023-04-15T06:41:23.654Z,1.10
2023-04-15T06:43:50.829Z,1.10
2023-04-15T06:46:18.047Z,0.70
2023-04-15T06:48:45.206Z,0.80
2023-04-15T06:51:12.123Z,0.80
2023-04-15T06:53:41.651Z,0.60
2023-04-15T06:56:10.334Z,0.70
2023-04-15T06:58:36.772Z,0.60
2023-04-15T07:01:04.814Z,0.50
2023-04-15T07:03:32.950Z,0.60
2023-04-15T07:06:02.387Z,0.60
2023-04-15T07:08:30.056Z,0.60
2023-04-15T07:10:57.888Z,0.90
2023-04-15T07:13:24.533Z,0.70
2023-04-15T07:15:51.952Z,0.90
2023-04-15T07:18:19.868Z,0.70
2023-04-15T07:20:48.274Z,0.50
2023-04-15T07:23:30.091Z,0.60
2023-04-15T07:25:59.701Z,0.50
2023-04-15T07:28:26.750Z,0.60
2023-04-15T07:30:53.328Z,0.70
2023-04-15T07:33:20.529Z,0.50
2023-04-15T07:35:47.108Z,0.80
2023-04-15T07:38:14.196Z,0.90
2023-04-15T07:40:44.702Z,1.00
2023-04-15T07:43:12.936Z,0.60
2023-04-15T07:45:41.444Z,0.70
2023-04-15T07:48:08.008Z,0.50
2023-04-15T07:50:36.277Z,0.50
2023-04-15T07:53:03.070Z,0.40
2023-04-15T07:55:30.772Z,0.50
2023-04-15T07:57:57.265Z,0.50
2023-04-15T08:00:26.270Z,0.50
2023-04-15T08:02:54.362Z,0.60
2023-04-15T08:05:21.613Z,1.00
2023-04-15T08:07:48.121Z,1.90
2023-04-15T08:10:17.292Z,0.60
2023-04-15T08:12:48.708Z,0.70
2023-04-15T08:15:17.786Z,0.90
2023-04-15T08:17:44.720Z,0.60
2023-04-15T08:20:12.722Z,0.50
2023-04-15T08:22:39.301Z,0.90
2023-04-15T08:25:08.523Z,0.70
2023-04-15T08:27:35.598Z,1.60
2023-04-15T08:30:04.636Z,0.50
2023-04-15T08:32:33.359Z,0.80
2023-04-15T08:35:01.122Z,1.70
2023-04-15T08:37:29.233Z,1.30
2023-04-15T08:39:57.193Z,0.60
2023-04-15T08:42:38.639Z,0.50
2023-04-15T08:45:09.103Z,1.80
2023-04-15T08:47:39.635Z,0.70
2023-04-15T08:50:11.436Z,0.50
2023-04-15T08:52:41.921Z,0.70
2023-04-15T08:55:10.924Z,0.90
2023-04-15T08:57:39.343Z,0.90
2023-04-15T09:00:08.789Z,0.70
2023-04-15T09:02:36.188Z,1.60
2023-04-15T09:05:06.970Z,0.80
2023-04-15T09:07:36.212Z,0.80
2023-04-15T09:12:44.676Z,0.60
2023-04-15T09:15:20.310Z,0.60
2023-04-15T09:17:50.393Z,0.70
2023-04-15T09:20:22.500Z,0.70
2023-04-15T09:22:52.656Z,0.80
2023-04-15T09:25:22.446Z,0.90
2023-04-15T09:27:59.102Z,0.80
2023-04-15T09:30:29.440Z,1.00
2023-04-15T09:32:59.404Z,6.00
2023-04-15T09:35:28.209Z,2.30
2023-04-15T09:38:09.612Z,1.20
2023-04-15T09:40:45.174Z,1.10
2023-04-15T09:43:16.135Z,8.20
2023-04-15T09:45:53.977Z,12.60
2023-04-15T09:48:32.441Z,1.90
2023-04-15T09:51:01.196Z,1.00
2023-04-15T09:53:35.968Z,0.80
2023-04-15T09:56:03.082Z,0.70
2023-04-15T09:58:34.540Z,0.60
2023-04-15T10:01:07.050Z,1.30
2023-04-15T10:03:38.166Z,2.80
2023-04-15T10:06:07.283Z,1.20
2023-04-15T10:08:37.020Z,1.00
2023-04-15T10:11:05.537Z,1.20
2023-04-15T10:13:34.657Z,2.40
2023-04-15T10:16:16.314Z,0.40
2023-04-15T10:18:46.437Z,1.60
2023-04-15T10:21:17.829Z,1.50
2023-04-15T10:26:16.835Z,0.70
2023-04-15T10:28:49.541Z,0.60
2023-04-15T10:31:18.141Z,1.40
2023-04-15T10:33:51.365Z,1.00
2023-04-15T10:36:23.543Z,0.90
2023-04-15T10:38:50.069Z,0.80
2023-04-15T10:41:26.304Z,0.70
2023-04-15T10:43:57.332Z,0.70
2023-04-15T10:46:42.774Z,0.60
2023-04-15T10:49:17.546Z,0.70
2023-04-15T10:51:58.534Z,0.70
2023-04-15T10:54:27.746Z,0.80
2023-04-15T10:57:03.239Z,2.40
2023-04-15T10:59:36.230Z,3.50
2023-04-15T11:02:06.861Z,4.10
2023-04-15T11:04:54.378Z,0.90
2023-04-15T11:07:46.542Z,1.40
2023-04-15T11:10:12.913Z,2.10
2023-04-15T11:12:45.452Z,1.30
2023-04-15T11:15:41.418Z,2.70
2023-04-15T11:18:16.423Z,1.80
2023-04-15T11:20:50.165Z,2.00
2023-04-15T11:23:31.874Z,2.10
2023-04-15T11:26:02.099Z,1.50
2023-04-15T11:28:33.326Z,2.10
2023-04-15T11:31:08.306Z,1.60
2023-04-15T11:33:36.627Z,0.90
2023-04-15T11:36:04.333Z,1.10
2023-04-15T11:38:32.207Z,4.30
2023-04-15T11:40:59.005Z,3.10
2023-04-15T11:43:31.834Z,1.50
2023-04-15T11:46:01.851Z,1.70
2023-04-15T11:48:31.965Z,1.90
2023-04-15T11:51:09.688Z,2.70
2023-04-15T11:53:45.764Z,2.20
2023-04-15T11:56:24.538Z,2.50
2023-04-15T11:59:00.161Z,1.50
2023-04-15T12:01:39.130Z,1.30
2023-04-15T12:04:24.246Z,1.00
2023-04-15T12:06:53.456Z,0.70
2023-04-15T12:09:21.137Z,1.00
2023-04-15T12:11:52.846Z,0.90
2023-04-15T12:14:33.000Z,0.60
2023-04-15T12:17:04.128Z,0.70
2023-04-15T12:19:37.356Z,0.70
2023-04-15T12:22:11.965Z,0.70
2023-04-15T12:24:39.900Z,0.70
2023-04-15T12:27:09.288Z,0.80
2023-04-15T12:29:38.770Z,1.30
2023-04-15T12:32:19.192Z,0.80
2023-04-15T12:34:57.549Z,0.70
2023-04-15T12:37:29.794Z,1.30
2023-04-15T12:39:56.384Z,1.40
2023-04-15T12:42:23.116Z,1.10
2023-04-15T12:44:51.453Z,0.80
2023-04-15T12:47:18.142Z,2.20
2023-04-15T12:49:45.576Z,1.20
2023-04-15T12:52:16.691Z,2.10
2023-04-15T12:54:43.416Z,1.40
2023-04-15T12:57:11.030Z,2.80
2023-04-15T12:59:38.287Z,1.50
2023-04-15T13:02:10.302Z,1.90
2023-04-15T13:04:38.153Z,1.00
2023-04-15T13:07:05.128Z,1.40
2023-04-15T13:09:31.785Z,2.40
2023-04-15T13:12:10.052Z,2.50
2023-04-15T13:14:38.792Z,1.20
2023-04-15T13:17:09.592Z,0.80
2023-04-15T13:19:36.909Z,1.60
2023-04-15T13:22:04.530Z,1.30
2023-04-15T13:24:31.379Z,0.70
2023-04-15T13:26:59.375Z,0.90
2023-04-15T13:29:26.849Z,1.40
2023-04-15T13:31:53.662Z,0.90
2023-04-15T13:34:20.394Z,0.90
2023-04-15T13:36:47.788Z,0.80
2023-04-15T13:39:15.313Z,0.80
2023-04-15T13:41:44.409Z,0.70
2023-04-15T13:44:21.537Z,1.00
2023-04-15T13:46:50.770Z,0.80
2023-04-15T13:49:21.589Z,1.40
2023-04-15T13:51:47.969Z,0.70
2023-04-15T13:54:14.833Z,1.20
2023-04-15T13:56:46.404Z,1.00
2023-04-15T13:59:12.925Z,1.10
2023-04-15T14:01:42.014Z,0.90
2023-04-15T14:04:08.722Z,3.90
2023-04-15T14:06:35.569Z,0.90
2023-04-15T14:09:02.633Z,1.10
2023-04-15T14:11:35.015Z,1.00
2023-04-15T14:14:03.239Z,1.90
2023-04-15T14:16:40.347Z,0.90
2023-04-15T14:19:07.712Z,1.40
2023-04-15T14:21:38.055Z,1.30
2023-04-15T14:24:06.217Z,1.10
2023-04-15T14:26:36.837Z,1.10
2023-04-15T14:29:04.952Z,0.90
2023-04-15T14:31:33.037Z,1.20
2023-04-15T14:34:01.688Z,1.00
2023-04-15T14:36:32.117Z,0.90
2023-04-15T14:38:59.163Z,0.80
2023-04-15T14:41:27.235Z,0.70
2023-04-15T14:43:53.694Z,1.00
2023-04-15T14:46:22.375Z,1.70
2023-04-15T14:48:52.752Z,1.00
2023-04-15T14:51:22.108Z,1.80
2023-04-15T14:53:48.817Z,0.90
2023-04-15T14:56:17.938Z,1.00
2023-04-15T14:58:45.411Z,1.40
2023-04-15T15:01:13.968Z,1.30
2023-04-15T15:03:41.080Z,0.80
2023-04-15T15:06:08.458Z,1.00
2023-04-15T15:08:38.675Z,1.20
2023-04-15T15:11:05.966Z,1.30
2023-04-15T15:13:33.221Z,1.10
2023-04-15T15:16:04.363Z,1.10
2023-04-15T15:18:32.938Z,1.40
2023-04-15T15:21:01.228Z,1.30
2023-04-15T15:23:27.991Z,1.00
2023-04-15T15:25:55.135Z,1.40
2023-04-15T15:28:23.106Z,1.20
2023-04-15T15:30:50.315Z,1.20
2023-04-15T15:33:17.288Z,1.10
2023-04-15T15:35:44.473Z,1.50
2023-04-15T15:38:13.035Z,1.00
2023-04-15T15:40:40.323Z,0.80
2023-04-15T15:43:11.202Z,0.70
2023-04-15T15:45:38.086Z,0.70
2023-04-15T15:48:07.697Z,0.80
2023-04-15T15:50:35.342Z,0.80
2023-04-15T15:53:06.784Z,3.30
2023-04-15T15:55:35.270Z,1.30
2023-04-15T15:58:03.049Z,1.10
2023-04-15T16:00:31.035Z,1.20
2023-04-15T16:05:29.095Z,1.30
2023-04-15T16:07:56.027Z,0.90
2023-04-15T16:10:22.656Z,1.00
2023-04-15T16:12:49.415Z,1.10
2023-04-15T16:15:20.032Z,3.30
2023-04-15T16:17:48.744Z,1.90
2023-04-15T16:20:18.565Z,1.20
2023-04-15T16:22:45.312Z,0.90
2023-04-15T16:25:15.078Z,1.10
2023-04-15T16:27:54.647Z,1.50
2023-04-15T16:30:26.654Z,1.20
2023-04-15T16:32:54.001Z,0.90
2023-04-15T16:35:22.155Z,1.00
2023-04-15T16:37:49.126Z,1.40
2023-04-15T16:40:20.255Z,1.40
2023-04-15T16:42:47.405Z,0.90
2023-04-15T16:45:18.425Z,1.20
2023-04-15T16:47:49.042Z,1.30
2023-04-15T16:50:16.310Z,1.10
2023-04-15T16:52:42.957Z,2.20
2023-04-15T16:55:10.839Z,0.90
2023-04-15T16:58:00.592Z,1.30
2023-04-15T17:00:25.447Z,1.10
2023-04-15T17:02:52.279Z,2.30
2023-04-15T17:05:19.547Z,2.20
2023-04-15T17:07:50.660Z,1.60
2023-04-15T17:10:25.336Z,1.10
2023-04-15T17:12:53.214Z,2.90
2023-04-15T17:15:21.997Z,2.00
2023-04-15T17:17:53.512Z,1.90
2023-04-15T17:20:21.898Z,2.60
2023-04-15T17:22:51.662Z,3.00
2023-04-15T17:25:21.230Z,6.90
2023-04-15T17:27:48.223Z,25.20
2023-04-15T17:30:17.219Z,37.00
2023-04-15T17:32:44.262Z,37.90
2023-04-15T17:35:11.623Z,3.40
2023-04-15T17:37:41.210Z,5.60
2023-04-15T17:40:09.250Z,2.40
2023-04-15T17:42:36.991Z,2.10
2023-04-15T17:45:06.091Z,1.80
2023-04-15T17:47:33.234Z,1.80
2023-04-15T17:50:01.186Z,1.30
2023-04-15T17:52:27.687Z,1.70
2023-04-15T17:54:55.345Z,1.60
2023-04-15T17:57:23.258Z,1.50
2023-04-15T17:59:51.092Z,1.50
2023-04-15T18:02:19.755Z,2.00
2023-04-15T18:04:47.108Z,1.70
2023-04-15T18:07:17.462Z,2.90
2023-04-15T18:09:46.134Z,6.00
2023-04-15T18:12:12.700Z,2.80
2023-04-15T18:14:39.616Z,7.00
2023-04-15T18:17:07.123Z,21.40
2023-04-15T18:19:34.015Z,27.60
2023-04-15T18:22:01.398Z,31.00
2023-04-15T18:24:29.822Z,7.70
2023-04-15T18:26:57.097Z,2.50
2023-04-15T18:29:24.921Z,6.10
2023-04-15T18:31:52.824Z,4.90
2023-04-15T18:34:19.894Z,3.70
2023-04-15T18:36:48.417Z,3.70
2023-04-15T18:39:16.214Z,7.30
2023-04-15T18:41:44.301Z,8.60
2023-04-15T18:44:15.877Z,9.40
2023-04-15T18:46:43.961Z,8.80
2023-04-15T18:49:11.781Z,10.50
2023-04-15T18:51:41.722Z,7.10
2023-04-15T18:54:08.678Z,6.00
2023-04-15T18:56:39.208Z,4.60
2023-04-15T18:59:28.105Z,2.70
2023-04-15T19:02:01.191Z,2.80
2023-04-15T19:04:31.835Z,3.40
2023-04-15T19:06:59.415Z,3.00
2023-04-15T19:09:27.364Z,3.50
2023-04-15T19:11:56.236Z,2.60
2023-04-15T19:14:24.777Z,2.90
2023-04-15T19:16:56.710Z,3.80
2023-04-15T19:19:29.298Z,2.60
2023-04-15T19:21:57.281Z,2.50
2023-04-15T19:24:24.909Z,2.20
2023-04-15T19:26:51.390Z,6.90
2023-04-15T19:29:20.102Z,3.70
2023-04-15T19:31:49.068Z,4.00
2023-04-15T19:34:16.119Z,2.40
2023-04-15T19:36:42.521Z,2.50
2023-04-15T19:39:10.261Z,1.80
2023-04-15T19:41:40.002Z,2.80
2023-04-15T19:44:11.262Z,3.40
2023-04-15T19:46:40.727Z,2.50
2023-04-15T19:49:07.563Z,2.10
2023-04-15T19:51:34.982Z,6.20
2023-04-15T19:54:02.995Z,2.70
2023-04-15T19:56:32.832Z,2.20
2023-04-15T19:59:02.616Z,2.20
2023-04-15T20:01:30.770Z,4.90
2023-04-15T20:03:57.614Z,4.50
2023-04-15T20:06:26.407Z,6.50
2023-04-15T20:08:55.467Z,3.50
2023-04-15T20:12:46.324Z,3.40
2023-04-15T20:14:21.236Z,2.40
2023-04-15T20:16:49.306Z,1.80
2023-04-15T20:19:16.506Z,1.70
2023-04-15T20:21:46.697Z,3.10
2023-04-15T20:24:14.407Z,2.20
2023-04-15T20:26:42.946Z,7.30
2023-04-15T20:29:12.583Z,2.90
2023-04-15T20:31:39.029Z,2.30
2023-04-15T20:34:12.098Z,2.60
2023-04-15T20:36:38.744Z,2.00
2023-04-15T20:39:05.733Z,3.80
2023-04-15T20:41:32.825Z,2.00
2023-04-15T20:43:59.846Z,2.80
2023-04-15T20:46:28.061Z,2.90
2023-04-15T20:48:56.285Z,2.30
2023-04-15T20:51:23.412Z,2.20
2023-04-15T20:53:50.742Z,2.00
2023-04-15T20:56:18.450Z,2.40
2023-04-15T20:58:45.083Z,1.50
2023-04-15T21:01:15.214Z,1.70
2023-04-15T21:03:41.978Z,2.10
2023-04-15T21:06:12.650Z,3.20
2023-04-15T21:08:42.116Z,4.20
2023-04-15T21:11:11.138Z,2.50
2023-04-15T21:13:37.604Z,3.40
2023-04-15T21:16:04.553Z,2.20
2023-04-15T21:18:31.274Z,3.00
2023-04-15T21:21:00.287Z,3.30
2023-04-15T21:23:35.221Z,2.00
2023-04-15T21:26:06.085Z,2.10
2023-04-15T21:28:32.572Z,1.90
2023-04-15T21:31:00.565Z,2.10
2023-04-15T21:33:27.142Z,3.40
2023-04-15T21:35:54.275Z,2.20
2023-04-15T21:38:23.402Z,1.90
2023-04-15T21:40:51.782Z,1.80
2023-04-15T21:43:22.630Z,3.30
2023-04-15T21:46:21.151Z,2.30
2023-04-15T21:48:37.304Z,2.40
2023-04-15T21:51:07.948Z,2.40
2023-04-15T21:53:34.386Z,1.70
2023-04-15T21:56:02.107Z,2.90
2023-04-15T21:58:30.882Z,3.20
2023-04-15T22:00:59.841Z,2.40
2023-04-15T22:03:34.995Z,2.40
2023-04-15T22:06:03.426Z,2.20
2023-04-15T22:08:41.265Z,2.60
2023-04-15T22:11:26.293Z,2.10
2023-04-15T22:13:57.071Z,2.20
2023-04-15T22:16:27.831Z,2.40
2023-04-15T22:18:55.814Z,1.20
2023-04-15T22:21:25.860Z,2.10
2023-04-15T22:23:53.022Z,2.20
2023-04-15T22:26:39.943Z,4.00
2023-04-15T22:29:07.892Z,1.90
2023-04-15T22:31:36.158Z,2.50
2023-04-15T22:34:03.476Z,1.50
2023-04-15T22:36:31.189Z,2.10
2023-04-15T22:39:05.513Z,2.40
2023-04-15T22:41:32.272Z,2.30
2023-04-15T22:44:00.601Z,1.70
2023-04-15T22:46:27.535Z,1.50
2023-04-15T22:48:54.520Z,2.00
2023-04-15T22:51:23.533Z,1.80
2023-04-15T22:53:50.272Z,2.20
2023-04-15T22:56:22.725Z,1.60
2023-04-15T22:58:50.057Z,1.70
2023-04-15T23:01:17.601Z,2.10
2023-04-15T23:03:57.547Z,3.30
2023-04-15T23:06:33.535Z,3.40
2023-04-15T23:09:00.259Z,1.90
2023-04-15T23:11:27.021Z,1.80
2023-04-15T23:13:55.894Z,1.90
2023-04-15T23:16:25.010Z,3.00
2023-04-15T23:18:53.088Z,1.90
2023-04-15T23:21:20.346Z,2.10
2023-04-15T23:23:47.064Z,1.90
2023-04-15T23:26:13.587Z,3.40
2023-04-15T23:28:40.481Z,2.10
2023-04-15T23:31:07.402Z,2.40
2023-04-15T23:33:34.091Z,2.10
2023-04-15T23:36:00.712Z,1.80
2023-04-15T23:38:27.648Z,2.10
2023-04-15T23:40:55.911Z,2.00
2023-04-15T23:43:25.323Z,3.10
2023-04-15T23:45:52.189Z,2.30
2023-04-15T23:48:18.673Z,1.90
2023-04-15T23:50:45.857Z,2.10
2023-04-15T23:53:12.370Z,2.10
2023-04-15T23:55:40.147Z,2.70
2023-04-15T23:58:08.757Z,6.50
